Pagina principală
METAR-TAF:

METAR-TAF

Aeroporturi :

Charleville, Australia

Latitudine: 26-24-45S, longitudine: 146-15-44E, elevație: 306 m

Observații meteo curente

Raportul a fost făcut în urmă cu 49 de minute, la 09:00 UTC
Vânt 4 kt de la Est/Nord-est
Temperatură 27°C
Umiditate 42%
Presiune 1014 hPa
Vizibilitate de 10 km sau mai mult

METAR: YBCV 290900Z AUTO 06004KT 9999 // NCD 27/13 Q1014

Ora: 19:49 (09:49 UTC)


TAF: lipsă

Observații și prognoze meteo pentru peste 4.000 de aeroporturi (rapoarte METAR și TAF).

Stațiile disponibile sunt reprezentate pe hartă prin puncte galbene și roșii.

Țineți indicatorul mouse-ului pe punctul dorit pentru a vedea denumirea stației.

Apoi, faceți clic pentru a vedea observațiile și prognozele meteorologice.

Pentru a schimba harta: Pentru mărire, faceți clic pe butoanele verzi cu cruce neagră; pentru micșorare, pe butonul verde cu o liniuță; pentru hărți învecinate, pe săgețile verzi.


METAR-TAF: